sensor_id;sensor_type;location;lat;lon;timestamp;temperature;humidity
54485;DHT22;45006;56.958;24.166;2023-06-14T00:01:44;25.00;61.90
54485;DHT22;45006;56.958;24.166;2023-06-14T00:04:13;25.00;62.00
54485;DHT22;45006;56.958;24.166;2023-06-14T00:06:45;24.90;62.00
54485;DHT22;45006;56.958;24.166;2023-06-14T00:09:16;25.00;62.10
54485;DHT22;45006;56.958;24.166;2023-06-14T00:11:47;24.90;62.20
54485;DHT22;45006;56.958;24.166;2023-06-14T00:14:13;24.90;62.20
54485;DHT22;45006;56.958;24.166;2023-06-14T00:16:43;24.90;62.30
54485;DHT22;45006;56.958;24.166;2023-06-14T00:19:10;25.00;62.30
54485;DHT22;45006;56.958;24.166;2023-06-14T00:21:38;24.90;62.40
54485;DHT22;45006;56.958;24.166;2023-06-14T00:24:05;24.90;62.40
54485;DHT22;45006;56.958;24.166;2023-06-14T00:26:32;24.90;62.50
54485;DHT22;45006;56.958;24.166;2023-06-14T00:29:01;24.90;62.50
54485;DHT22;45006;56.958;24.166;2023-06-14T00:31:28;24.90;62.60
54485;DHT22;45006;56.958;24.166;2023-06-14T00:33:55;24.90;62.60
54485;DHT22;45006;56.958;24.166;2023-06-14T00:36:22;24.90;62.70
54485;DHT22;45006;56.958;24.166;2023-06-14T00:38:49;24.90;62.70
54485;DHT22;45006;56.958;24.166;2023-06-14T00:41:16;24.90;62.80
54485;DHT22;45006;56.958;24.166;2023-06-14T00:43:43;24.90;62.80
54485;DHT22;45006;56.958;24.166;2023-06-14T00:46:10;25.00;62.90
54485;DHT22;45006;56.958;24.166;2023-06-14T00:48:38;24.90;62.90
54485;DHT22;45006;56.958;24.166;2023-06-14T00:51:05;24.90;63.00
54485;DHT22;45006;56.958;24.166;2023-06-14T00:53:32;24.90;63.00
54485;DHT22;45006;56.958;24.166;2023-06-14T00:56:03;24.90;63.00
54485;DHT22;45006;56.958;24.166;2023-06-14T00:58:30;24.90;63.10
54485;DHT22;45006;56.958;24.166;2023-06-14T01:00:58;24.90;63.10
54485;DHT22;45006;56.958;24.166;2023-06-14T01:03:25;24.90;63.10
54485;DHT22;45006;56.958;24.166;2023-06-14T01:06:19;24.90;63.10
54485;DHT22;45006;56.958;24.166;2023-06-14T01:09:24;24.90;63.20
54485;DHT22;45006;56.958;24.166;2023-06-14T01:15:47;24.90;63.30
54485;DHT22;45006;56.958;24.166;2023-06-14T01:18:14;24.90;63.30
54485;DHT22;45006;56.958;24.166;2023-06-14T01:20:45;24.90;63.30
54485;DHT22;45006;56.958;24.166;2023-06-14T01:23:17;24.90;64.00
54485;DHT22;45006;56.958;24.166;2023-06-14T01:25:45;24.90;63.40
54485;DHT22;45006;56.958;24.166;2023-06-14T01:28:15;24.90;63.40
54485;DHT22;45006;56.958;24.166;2023-06-14T01:30:46;24.90;63.40
54485;DHT22;45006;56.958;24.166;2023-06-14T01:33:15;24.90;63.40
54485;DHT22;45006;56.958;24.166;2023-06-14T01:35:45;24.90;63.50
54485;DHT22;45006;56.958;24.166;2023-06-14T01:38:40;24.90;63.50
54485;DHT22;45006;56.958;24.166;2023-06-14T01:41:21;24.90;63.50
54485;DHT22;45006;56.958;24.166;2023-06-14T01:43:49;24.90;63.50
54485;DHT22;45006;56.958;24.166;2023-06-14T01:46:17;24.90;63.50
54485;DHT22;45006;56.958;24.166;2023-06-14T01:48:45;24.90;63.50
54485;DHT22;45006;56.958;24.166;2023-06-14T01:51:12;24.90;63.50
54485;DHT22;45006;56.958;24.166;2023-06-14T01:53:39;24.90;63.50
54485;DHT22;45006;56.958;24.166;2023-06-14T01:56:06;24.90;63.50
54485;DHT22;45006;56.958;24.166;2023-06-14T01:58:34;24.90;63.50
54485;DHT22;45006;56.958;24.166;2023-06-14T02:01:02;24.90;63.50
54485;DHT22;45006;56.958;24.166;2023-06-14T02:03:29;24.90;63.60
54485;DHT22;45006;56.958;24.166;2023-06-14T02:05:58;24.90;63.60
54485;DHT22;45006;56.958;24.166;2023-06-14T02:08:25;24.90;63.60
54485;DHT22;45006;56.958;24.166;2023-06-14T02:10:52;24.90;63.60
54485;DHT22;45006;56.958;24.166;2023-06-14T02:13:19;24.90;63.60
54485;DHT22;45006;56.958;24.166;2023-06-14T02:15:46;24.90;63.60
54485;DHT22;45006;56.958;24.166;2023-06-14T02:18:15;24.90;63.60
54485;DHT22;45006;56.958;24.166;2023-06-14T02:20:43;24.90;63.60
54485;DHT22;45006;56.958;24.166;2023-06-14T02:23:11;24.90;63.70
54485;DHT22;45006;56.958;24.166;2023-06-14T02:25:38;24.90;63.70
54485;DHT22;45006;56.958;24.166;2023-06-14T02:28:07;24.90;63.70
54485;DHT22;45006;56.958;24.166;2023-06-14T02:30:35;24.90;63.70
54485;DHT22;45006;56.958;24.166;2023-06-14T02:33:02;24.90;63.70
54485;DHT22;45006;56.958;24.166;2023-06-14T02:35:30;24.90;63.70
54485;DHT22;45006;56.958;24.166;2023-06-14T02:37:57;24.90;63.70
54485;DHT22;45006;56.958;24.166;2023-06-14T02:40:24;24.90;63.80
54485;DHT22;45006;56.958;24.166;2023-06-14T02:42:51;24.90;63.70
54485;DHT22;45006;56.958;24.166;2023-06-14T02:45:18;24.90;63.80
54485;DHT22;45006;56.958;24.166;2023-06-14T02:47:45;24.90;63.70
54485;DHT22;45006;56.958;24.166;2023-06-14T02:50:13;24.90;63.80
54485;DHT22;45006;56.958;24.166;2023-06-14T02:52:40;24.90;63.80
54485;DHT22;45006;56.958;24.166;2023-06-14T02:55:11;24.90;63.80
54485;DHT22;45006;56.958;24.166;2023-06-14T02:57:38;24.90;63.80
54485;DHT22;45006;56.958;24.166;2023-06-14T03:00:05;24.90;63.80
54485;DHT22;45006;56.958;24.166;2023-06-14T03:02:36;24.90;63.80
54485;DHT22;45006;56.958;24.166;2023-06-14T03:05:03;24.90;63.80
54485;DHT22;45006;56.958;24.166;2023-06-14T03:07:31;24.90;63.80
54485;DHT22;45006;56.958;24.166;2023-06-14T03:09:58;24.90;63.80
54485;DHT22;45006;56.958;24.166;2023-06-14T03:12:25;24.90;63.80
54485;DHT22;45006;56.958;24.166;2023-06-14T03:14:53;24.90;63.80
54485;DHT22;45006;56.958;24.166;2023-06-14T03:17:20;24.90;63.80
54485;DHT22;45006;56.958;24.166;2023-06-14T03:19:47;24.90;63.80
54485;DHT22;45006;56.958;24.166;2023-06-14T03:22:14;24.90;63.80
54485;DHT22;45006;56.958;24.166;2023-06-14T03:24:41;24.90;63.80
54485;DHT22;45006;56.958;24.166;2023-06-14T03:27:08;24.90;63.80
54485;DHT22;45006;56.958;24.166;2023-06-14T03:29:37;24.90;63.80
54485;DHT22;45006;56.958;24.166;2023-06-14T03:32:05;24.90;63.80
54485;DHT22;45006;56.958;24.166;2023-06-14T03:34:32;24.90;63.80
54485;DHT22;45006;56.958;24.166;2023-06-14T03:36:59;24.90;63.80
54485;DHT22;45006;56.958;24.166;2023-06-14T03:39:26;24.90;63.90
54485;DHT22;45006;56.958;24.166;2023-06-14T03:41:53;24.90;63.80
54485;DHT22;45006;56.958;24.166;2023-06-14T03:44:21;24.90;63.90
54485;DHT22;45006;56.958;24.166;2023-06-14T03:53:05;24.90;63.80
54485;DHT22;45006;56.958;24.166;2023-06-14T03:55:32;24.90;63.80
54485;DHT22;45006;56.958;24.166;2023-06-14T03:58:02;24.90;63.70
54485;DHT22;45006;56.958;24.166;2023-06-14T04:00:29;24.90;63.70
54485;DHT22;45006;56.958;24.166;2023-06-14T04:02:56;24.90;63.70
54485;DHT22;45006;56.958;24.166;2023-06-14T04:05:24;24.90;63.70
54485;DHT22;45006;56.958;24.166;2023-06-14T04:07:53;24.90;63.70
54485;DHT22;45006;56.958;24.166;2023-06-14T04:10:22;24.90;63.70
54485;DHT22;45006;56.958;24.166;2023-06-14T04:12:49;24.90;63.70
54485;DHT22;45006;56.958;24.166;2023-06-14T04:15:17;24.90;63.80
54485;DHT22;45006;56.958;24.166;2023-06-14T04:17:47;24.90;63.80
54485;DHT22;45006;56.958;24.166;2023-06-14T04:20:15;24.90;63.80
54485;DHT22;45006;56.958;24.166;2023-06-14T04:22:44;24.90;63.90
54485;DHT22;45006;56.958;24.166;2023-06-14T04:25:11;24.90;63.90
54485;DHT22;45006;56.958;24.166;2023-06-14T04:27:40;24.90;63.90
54485;DHT22;45006;56.958;24.166;2023-06-14T04:30:10;24.90;64.00
54485;DHT22;45006;56.958;24.166;2023-06-14T04:32:37;24.90;64.00
54485;DHT22;45006;56.958;24.166;2023-06-14T04:35:09;24.90;64.10
54485;DHT22;45006;56.958;24.166;2023-06-14T04:37:37;24.90;64.10
54485;DHT22;45006;56.958;24.166;2023-06-14T04:40:07;24.90;64.20
54485;DHT22;45006;56.958;24.166;2023-06-14T04:42:38;24.90;64.20
54485;DHT22;45006;56.958;24.166;2023-06-14T04:45:08;24.90;64.30
54485;DHT22;45006;56.958;24.166;2023-06-14T04:47:36;24.90;64.40
54485;DHT22;45006;56.958;24.166;2023-06-14T04:50:04;24.90;64.40
54485;DHT22;45006;56.958;24.166;2023-06-14T04:52:32;24.90;64.40
54485;DHT22;45006;56.958;24.166;2023-06-14T04:54:59;24.90;64.50
54485;DHT22;45006;56.958;24.166;2023-06-14T04:57:26;24.90;64.60
54485;DHT22;45006;56.958;24.166;2023-06-14T04:59:53;24.90;64.60
54485;DHT22;45006;56.958;24.166;2023-06-14T05:02:25;24.90;64.70
54485;DHT22;45006;56.958;24.166;2023-06-14T05:04:53;24.90;64.80
54485;DHT22;45006;56.958;24.166;2023-06-14T05:07:21;24.90;64.80
54485;DHT22;45006;56.958;24.166;2023-06-14T05:09:50;24.90;64.90
54485;DHT22;45006;56.958;24.166;2023-06-14T05:12:17;24.90;65.00
54485;DHT22;45006;56.958;24.166;2023-06-14T05:14:45;24.90;65.10
54485;DHT22;45006;56.958;24.166;2023-06-14T05:17:13;24.90;65.30
54485;DHT22;45006;56.958;24.166;2023-06-14T05:19:41;24.90;65.40
54485;DHT22;45006;56.958;24.166;2023-06-14T05:22:08;24.90;65.60
54485;DHT22;45006;56.958;24.166;2023-06-14T05:24:35;24.90;65.70
54485;DHT22;45006;56.958;24.166;2023-06-14T05:27:02;24.90;65.70
54485;DHT22;45006;56.958;24.166;2023-06-14T05:29:29;24.90;65.90
54485;DHT22;45006;56.958;24.166;2023-06-14T05:31:56;24.90;66.00
54485;DHT22;45006;56.958;24.166;2023-06-14T05:34:23;24.90;66.10
54485;DHT22;45006;56.958;24.166;2023-06-14T05:36:51;25.00;66.30
54485;DHT22;45006;56.958;24.166;2023-06-14T05:39:18;24.90;66.40
54485;DHT22;45006;56.958;24.166;2023-06-14T05:41:47;25.00;66.50
54485;DHT22;45006;56.958;24.166;2023-06-14T05:44:16;25.00;66.60
54485;DHT22;45006;56.958;24.166;2023-06-14T05:46:43;25.00;66.70
54485;DHT22;45006;56.958;24.166;2023-06-14T05:49:11;25.00;66.80
54485;DHT22;45006;56.958;24.166;2023-06-14T05:51:38;25.00;66.90
54485;DHT22;45006;56.958;24.166;2023-06-14T05:54:05;25.00;67.00
54485;DHT22;45006;56.958;24.166;2023-06-14T05:56:32;25.10;67.20
54485;DHT22;45006;56.958;24.166;2023-06-14T05:58:59;25.10;67.30
54485;DHT22;45006;56.958;24.166;2023-06-14T06:01:26;25.10;67.30
54485;DHT22;45006;56.958;24.166;2023-06-14T06:03:55;25.10;67.50
54485;DHT22;45006;56.958;24.166;2023-06-14T06:06:22;25.10;67.60
54485;DHT22;45006;56.958;24.166;2023-06-14T06:08:49;25.10;67.70
54485;DHT22;45006;56.958;24.166;2023-06-14T06:11:16;25.20;67.80
54485;DHT22;45006;56.958;24.166;2023-06-14T06:13:42;25.10;67.80
54485;DHT22;45006;56.958;24.166;2023-06-14T06:16:10;25.20;67.80
54485;DHT22;45006;56.958;24.166;2023-06-14T06:18:38;25.10;67.50
54485;DHT22;45006;56.958;24.166;2023-06-14T06:21:06;25.20;66.90
54485;DHT22;45006;56.958;24.166;2023-06-14T06:23:34;25.10;65.90
54485;DHT22;45006;56.958;24.166;2023-06-14T06:26:02;25.20;65.20
54485;DHT22;45006;56.958;24.166;2023-06-14T06:28:31;25.10;64.40
54485;DHT22;45006;56.958;24.166;2023-06-14T06:30:58;25.10;63.90
54485;DHT22;45006;56.958;24.166;2023-06-14T06:33:26;25.10;63.40
54485;DHT22;45006;56.958;24.166;2023-06-14T06:35:54;25.10;63.00
54485;DHT22;45006;56.958;24.166;2023-06-14T06:38:21;25.10;62.60
54485;DHT22;45006;56.958;24.166;2023-06-14T06:40:49;25.10;62.10
54485;DHT22;45006;56.958;24.166;2023-06-14T06:43:17;25.10;61.50
54485;DHT22;45006;56.958;24.166;2023-06-14T06:45:45;25.10;61.10
54485;DHT22;45006;56.958;24.166;2023-06-14T06:48:12;25.10;60.80
54485;DHT22;45006;56.958;24.166;2023-06-14T06:50:39;25.10;60.50
54485;DHT22;45006;56.958;24.166;2023-06-14T06:53:06;25.10;60.30
54485;DHT22;45006;56.958;24.166;2023-06-14T06:55:37;25.10;59.90
54485;DHT22;45006;56.958;24.166;2023-06-14T06:58:04;25.10;59.50
54485;DHT22;45006;56.958;24.166;2023-06-14T07:00:32;25.10;59.20
54485;DHT22;45006;56.958;24.166;2023-06-14T07:02:59;25.10;58.90
54485;DHT22;45006;56.958;24.166;2023-06-14T07:05:27;25.10;58.90
54485;DHT22;45006;56.958;24.166;2023-06-14T07:07:54;25.10;58.80
54485;DHT22;45006;56.958;24.166;2023-06-14T07:10:24;25.10;58.70
54485;DHT22;45006;56.958;24.166;2023-06-14T07:12:52;25.10;58.60
54485;DHT22;45006;56.958;24.166;2023-06-14T07:15:19;25.10;58.50
54485;DHT22;45006;56.958;24.166;2023-06-14T07:17:46;25.10;58.30
54485;DHT22;45006;56.958;24.166;2023-06-14T07:20:13;25.10;58.20
54485;DHT22;45006;56.958;24.166;2023-06-14T07:22:41;25.10;58.10
54485;DHT22;45006;56.958;24.166;2023-06-14T07:25:10;25.20;58.00
54485;DHT22;45006;56.958;24.166;2023-06-14T07:27:45;25.10;57.90
54485;DHT22;45006;56.958;24.166;2023-06-14T07:30:12;25.20;58.40
54485;DHT22;45006;56.958;24.166;2023-06-14T07:32:40;25.20;57.70
54485;DHT22;45006;56.958;24.166;2023-06-14T07:35:09;25.20;57.50
54485;DHT22;45006;56.958;24.166;2023-06-14T07:37:36;25.20;57.20
54485;DHT22;45006;56.958;24.166;2023-06-14T07:40:04;25.20;56.90
54485;DHT22;45006;56.958;24.166;2023-06-14T07:42:34;25.20;56.70
54485;DHT22;45006;56.958;24.166;2023-06-14T07:45:03;25.20;56.50
54485;DHT22;45006;56.958;24.166;2023-06-14T07:47:31;25.20;56.40
54485;DHT22;45006;56.958;24.166;2023-06-14T07:50:18;25.10;56.20
54485;DHT22;45006;56.958;24.166;2023-06-14T07:52:45;25.20;56.00
54485;DHT22;45006;56.958;24.166;2023-06-14T07:55:13;25.20;55.80
54485;DHT22;45006;56.958;24.166;2023-06-14T07:57:43;25.10;55.50
54485;DHT22;45006;56.958;24.166;2023-06-14T08:02:18;25.20;53.10
54485;DHT22;45006;56.958;24.166;2023-06-14T08:04:45;25.00;52.20
54485;DHT22;45006;56.958;24.166;2023-06-14T08:07:13;24.80;55.40
54485;DHT22;45006;56.958;24.166;2023-06-14T08:09:40;24.70;56.00
54485;DHT22;45006;56.958;24.166;2023-06-14T08:12:08;24.60;57.30
54485;DHT22;45006;56.958;24.166;2023-06-14T08:14:37;24.50;57.90
54485;DHT22;45006;56.958;24.166;2023-06-14T08:17:05;24.50;58.30
54485;DHT22;45006;56.958;24.166;2023-06-14T08:19:32;24.50;58.80
54485;DHT22;45006;56.958;24.166;2023-06-14T08:21:59;24.50;58.90
54485;DHT22;45006;56.958;24.166;2023-06-14T08:24:26;24.50;58.80
54485;DHT22;45006;56.958;24.166;2023-06-14T08:26:54;24.40;59.10
54485;DHT22;45006;56.958;24.166;2023-06-14T08:29:21;24.40;59.30
54485;DHT22;45006;56.958;24.166;2023-06-14T08:32:02;24.40;59.50
54485;DHT22;45006;56.958;24.166;2023-06-14T08:34:29;24.40;59.70
54485;DHT22;45006;56.958;24.166;2023-06-14T08:36:56;24.40;59.80
54485;DHT22;45006;56.958;24.166;2023-06-14T08:39:25;24.40;60.00
54485;DHT22;45006;56.958;24.166;2023-06-14T08:41:52;24.40;60.10
54485;DHT22;45006;56.958;24.166;2023-06-14T08:44:20;24.40;60.20
54485;DHT22;45006;56.958;24.166;2023-06-14T08:46:49;24.30;60.50
54485;DHT22;45006;56.958;24.166;2023-06-14T08:49:18;24.40;60.80
54485;DHT22;45006;56.958;24.166;2023-06-14T08:51:45;24.30;61.50
54485;DHT22;45006;56.958;24.166;2023-06-14T08:54:15;24.30;60.90
54485;DHT22;45006;56.958;24.166;2023-06-14T08:56:43;24.40;61.20
54485;DHT22;45006;56.958;24.166;2023-06-14T08:59:11;24.30;61.30
54485;DHT22;45006;56.958;24.166;2023-06-14T09:01:40;24.30;61.40
54485;DHT22;45006;56.958;24.166;2023-06-14T09:04:21;24.30;61.20
54485;DHT22;45006;56.958;24.166;2023-06-14T09:06:49;24.30;61.60
54485;DHT22;45006;56.958;24.166;2023-06-14T09:09:22;24.30;61.70
54485;DHT22;45006;56.958;24.166;2023-06-14T09:11:51;24.30;61.90
54485;DHT22;45006;56.958;24.166;2023-06-14T09:14:19;24.30;62.10
54485;DHT22;45006;56.958;24.166;2023-06-14T09:16:47;24.30;62.20
54485;DHT22;45006;56.958;24.166;2023-06-14T09:19:24;24.30;62.20
54485;DHT22;45006;56.958;24.166;2023-06-14T09:21:52;24.30;62.20
54485;DHT22;45006;56.958;24.166;2023-06-14T09:24:20;24.30;62.20
54485;DHT22;45006;56.958;24.166;2023-06-14T09:26:47;24.30;62.40
54485;DHT22;45006;56.958;24.166;2023-06-14T09:29:18;24.30;60.30
54485;DHT22;45006;56.958;24.166;2023-06-14T09:31:48;24.30;59.10
54485;DHT22;45006;56.958;24.166;2023-06-14T09:34:16;24.30;60.90
54485;DHT22;45006;56.958;24.166;2023-06-14T09:36:44;24.30;61.90
54485;DHT22;45006;56.958;24.166;2023-06-14T09:39:17;24.30;62.20
54485;DHT22;45006;56.958;24.166;2023-06-14T09:41:44;24.30;62.50
54485;DHT22;45006;56.958;24.166;2023-06-14T09:44:15;24.30;62.70
54485;DHT22;45006;56.958;24.166;2023-06-14T09:46:49;24.30;62.80
54485;DHT22;45006;56.958;24.166;2023-06-14T09:49:18;24.30;62.90
54485;DHT22;45006;56.958;24.166;2023-06-14T09:51:51;24.30;62.90
54485;DHT22;45006;56.958;24.166;2023-06-14T09:54:22;24.30;63.20
54485;DHT22;45006;56.958;24.166;2023-06-14T09:56:51;24.30;63.10
54485;DHT22;45006;56.958;24.166;2023-06-14T09:59:21;24.30;63.20
54485;DHT22;45006;56.958;24.166;2023-06-14T10:01:58;24.20;63.20
54485;DHT22;45006;56.958;24.166;2023-06-14T10:04:28;24.30;63.20
54485;DHT22;45006;56.958;24.166;2023-06-14T10:06:57;24.30;63.30
54485;DHT22;45006;56.958;24.166;2023-06-14T10:09:24;24.20;63.50
54485;DHT22;45006;56.958;24.166;2023-06-14T10:11:56;24.30;63.20
54485;DHT22;45006;56.958;24.166;2023-06-14T10:14:23;24.30;63.60
54485;DHT22;45006;56.958;24.166;2023-06-14T10:17:06;24.20;63.60
54485;DHT22;45006;56.958;24.166;2023-06-14T10:19:47;24.30;63.90
54485;DHT22;45006;56.958;24.166;2023-06-14T10:22:21;24.20;63.70
54485;DHT22;45006;56.958;24.166;2023-06-14T10:25:10;24.20;63.70
54485;DHT22;45006;56.958;24.166;2023-06-14T10:27:46;24.20;63.90
54485;DHT22;45006;56.958;24.166;2023-06-14T10:30:15;24.20;64.10
54485;DHT22;45006;56.958;24.166;2023-06-14T10:33:05;24.20;63.80
54485;DHT22;45006;56.958;24.166;2023-06-14T10:35:34;24.20;63.90
54485;DHT22;45006;56.958;24.166;2023-06-14T10:38:09;24.20;64.00
54485;DHT22;45006;56.958;24.166;2023-06-14T10:40:36;24.30;63.90
54485;DHT22;45006;56.958;24.166;2023-06-14T10:43:27;24.30;64.20
54485;DHT22;45006;56.958;24.166;2023-06-14T10:46:18;24.30;64.60
54485;DHT22;45006;56.958;24.166;2023-06-14T10:48:49;24.30;64.70
54485;DHT22;45006;56.958;24.166;2023-06-14T10:51:23;24.30;64.80
54485;DHT22;45006;56.958;24.166;2023-06-14T10:53:53;24.20;65.00
54485;DHT22;45006;56.958;24.166;2023-06-14T10:56:29;24.30;65.20
54485;DHT22;45006;56.958;24.166;2023-06-14T10:58:57;24.30;65.30
54485;DHT22;45006;56.958;24.166;2023-06-14T11:04:12;24.30;64.80
54485;DHT22;45006;56.958;24.166;2023-06-14T11:06:48;24.30;65.30
54485;DHT22;45006;56.958;24.166;2023-06-14T11:11:59;24.30;65.40
54485;DHT22;45006;56.958;24.166;2023-06-14T11:14:31;24.30;65.50
54485;DHT22;45006;56.958;24.166;2023-06-14T11:16:59;24.30;65.40
54485;DHT22;45006;56.958;24.166;2023-06-14T11:19:27;24.30;65.50
54485;DHT22;45006;56.958;24.166;2023-06-14T11:21:57;24.30;65.90
54485;DHT22;45006;56.958;24.166;2023-06-14T11:24:25;24.30;65.30
54485;DHT22;45006;56.958;24.166;2023-06-14T11:26:55;24.30;65.30
54485;DHT22;45006;56.958;24.166;2023-06-14T11:29:28;24.30;65.10
54485;DHT22;45006;56.958;24.166;2023-06-14T11:32:00;24.30;65.40
54485;DHT22;45006;56.958;24.166;2023-06-14T11:34:31;24.30;64.90
54485;DHT22;45006;56.958;24.166;2023-06-14T11:36:58;24.30;64.90
54485;DHT22;45006;56.958;24.166;2023-06-14T11:39:25;24.30;64.60
54485;DHT22;45006;56.958;24.166;2023-06-14T11:41:53;24.30;64.60
54485;DHT22;45006;56.958;24.166;2023-06-14T11:44:22;24.30;64.80
54485;DHT22;45006;56.958;24.166;2023-06-14T11:46:49;24.30;64.70
54485;DHT22;45006;56.958;24.166;2023-06-14T11:49:17;24.30;65.10
54485;DHT22;45006;56.958;24.166;2023-06-14T11:51:44;24.30;64.70
54485;DHT22;45006;56.958;24.166;2023-06-14T11:54:12;24.30;65.00
54485;DHT22;45006;56.958;24.166;2023-06-14T11:56:38;24.30;64.80
54485;DHT22;45006;56.958;24.166;2023-06-14T11:59:06;24.30;65.00
54485;DHT22;45006;56.958;24.166;2023-06-14T12:01:36;24.30;64.90
54485;DHT22;45006;56.958;24.166;2023-06-14T12:04:05;24.30;64.80
54485;DHT22;45006;56.958;24.166;2023-06-14T12:06:32;24.30;65.10
54485;DHT22;45006;56.958;24.166;2023-06-14T12:09:03;24.30;65.10
54485;DHT22;45006;56.958;24.166;2023-06-14T12:11:34;24.30;65.30
54485;DHT22;45006;56.958;24.166;2023-06-14T12:14:03;24.30;65.70
54485;DHT22;45006;56.958;24.166;2023-06-14T12:16:33;24.30;65.30
54485;DHT22;45006;56.958;24.166;2023-06-14T12:19:25;24.30;65.30
54485;DHT22;45006;56.958;24.166;2023-06-14T12:21:52;24.30;65.30
54485;DHT22;45006;56.958;24.166;2023-06-14T12:24:19;24.30;65.10
54485;DHT22;45006;56.958;24.166;2023-06-14T12:26:46;24.30;66.20
54485;DHT22;45006;56.958;24.166;2023-06-14T12:29:13;24.30;65.50
54485;DHT22;45006;56.958;24.166;2023-06-14T12:31:41;24.30;65.50
54485;DHT22;45006;56.958;24.166;2023-06-14T12:34:09;24.30;65.30
54485;DHT22;45006;56.958;24.166;2023-06-14T12:36:37;24.30;65.20
54485;DHT22;45006;56.958;24.166;2023-06-14T12:39:12;24.30;65.30
54485;DHT22;45006;56.958;24.166;2023-06-14T12:41:39;24.30;65.30
54485;DHT22;45006;56.958;24.166;2023-06-14T12:44:09;24.30;65.30
54485;DHT22;45006;56.958;24.166;2023-06-14T12:46:38;24.30;66.00
54485;DHT22;45006;56.958;24.166;2023-06-14T12:49:12;24.40;66.00
54485;DHT22;45006;56.958;24.166;2023-06-14T12:51:40;24.40;66.00
54485;DHT22;45006;56.958;24.166;2023-06-14T12:54:09;24.30;50.40
54485;DHT22;45006;56.958;24.166;2023-06-14T12:56:36;24.00;43.00
54485;DHT22;45006;56.958;24.166;2023-06-14T12:59:03;23.90;41.50
54485;DHT22;45006;56.958;24.166;2023-06-14T13:01:33;23.90;41.90
54485;DHT22;45006;56.958;24.166;2023-06-14T13:04:00;23.90;41.80
54485;DHT22;45006;56.958;24.166;2023-06-14T13:06:27;23.90;42.30
54485;DHT22;45006;56.958;24.166;2023-06-14T13:08:56;23.90;41.70
54485;DHT22;45006;56.958;24.166;2023-06-14T13:11:24;23.90;41.50
54485;DHT22;45006;56.958;24.166;2023-06-14T13:13:51;23.80;47.20
54485;DHT22;45006;56.958;24.166;2023-06-14T13:16:18;23.80;44.10
54485;DHT22;45006;56.958;24.166;2023-06-14T13:18:45;23.70;49.60
54485;DHT22;45006;56.958;24.166;2023-06-14T13:21:12;23.70;48.30
54485;DHT22;45006;56.958;24.166;2023-06-14T13:23:40;23.70;43.80
54485;DHT22;45006;56.958;24.166;2023-06-14T13:26:07;23.60;41.00
54485;DHT22;45006;56.958;24.166;2023-06-14T13:28:34;23.60;40.90
54485;DHT22;45006;56.958;24.166;2023-06-14T13:31:02;23.60;40.90
54485;DHT22;45006;56.958;24.166;2023-06-14T13:33:29;23.60;41.30
54485;DHT22;45006;56.958;24.166;2023-06-14T13:35:56;23.50;40.80
54485;DHT22;45006;56.958;24.166;2023-06-14T13:38:23;23.40;40.70
54485;DHT22;45006;56.958;24.166;2023-06-14T13:40:50;23.40;41.50
54485;DHT22;45006;56.958;24.166;2023-06-14T13:43:17;23.30;41.40
54485;DHT22;45006;56.958;24.166;2023-06-14T13:45:44;23.30;42.20
54485;DHT22;45006;56.958;24.166;2023-06-14T13:48:11;23.40;42.60
54485;DHT22;45006;56.958;24.166;2023-06-14T13:50:39;23.50;42.80
54485;DHT22;45006;56.958;24.166;2023-06-14T13:53:08;23.50;41.80
54485;DHT22;45006;56.958;24.166;2023-06-14T13:55:35;23.50;41.90
54485;DHT22;45006;56.958;24.166;2023-06-14T13:58:02;23.50;42.00
54485;DHT22;45006;56.958;24.166;2023-06-14T14:00:29;23.50;42.00
54485;DHT22;45006;56.958;24.166;2023-06-14T14:02:56;23.50;43.10
54485;DHT22;45006;56.958;24.166;2023-06-14T14:05:24;23.60;42.80
54485;DHT22;45006;56.958;24.166;2023-06-14T14:07:56;23.60;42.70
54485;DHT22;45006;56.958;24.166;2023-06-14T14:10:24;23.60;42.50
54485;DHT22;45006;56.958;24.166;2023-06-14T14:12:51;23.40;42.00
54485;DHT22;45006;56.958;24.166;2023-06-14T14:15:19;23.20;42.20
54485;DHT22;45006;56.958;24.166;2023-06-14T14:17:46;23.20;43.00
54485;DHT22;45006;56.958;24.166;2023-06-14T14:20:17;23.20;43.10
54485;DHT22;45006;56.958;24.166;2023-06-14T14:22:44;23.30;43.40
54485;DHT22;45006;56.958;24.166;2023-06-14T14:25:11;23.30;42.60
54485;DHT22;45006;56.958;24.166;2023-06-14T14:27:38;23.30;42.90
54485;DHT22;45006;56.958;24.166;2023-06-14T14:30:06;23.30;42.10
54485;DHT22;45006;56.958;24.166;2023-06-14T14:32:33;23.30;42.10
54485;DHT22;45006;56.958;24.166;2023-06-14T14:35:00;23.30;42.00
54485;DHT22;45006;56.958;24.166;2023-06-14T14:37:27;23.30;42.00
54485;DHT22;45006;56.958;24.166;2023-06-14T14:39:54;23.30;42.20
54485;DHT22;45006;56.958;24.166;2023-06-14T14:42:21;23.30;41.90
54485;DHT22;45006;56.958;24.166;2023-06-14T14:44:48;23.30;41.90
54485;DHT22;45006;56.958;24.166;2023-06-14T14:47:18;23.30;42.00
54485;DHT22;45006;56.958;24.166;2023-06-14T14:49:45;23.20;41.40
54485;DHT22;45006;56.958;24.166;2023-06-14T14:52:12;23.20;41.60
54485;DHT22;45006;56.958;24.166;2023-06-14T14:54:49;23.30;42.20
54485;DHT22;45006;56.958;24.166;2023-06-14T14:57:16;23.30;41.70
54485;DHT22;45006;56.958;24.166;2023-06-14T14:59:44;23.30;41.10
54485;DHT22;45006;56.958;24.166;2023-06-14T15:02:11;23.20;41.10
54485;DHT22;45006;56.958;24.166;2023-06-14T15:04:38;23.20;41.30
54485;DHT22;45006;56.958;24.166;2023-06-14T15:07:05;23.20;41.10
54485;DHT22;45006;56.958;24.166;2023-06-14T15:09:33;23.20;44.40
54485;DHT22;45006;56.958;24.166;2023-06-14T15:12:00;23.20;42.10
54485;DHT22;45006;56.958;24.166;2023-06-14T15:14:27;23.20;42.40
54485;DHT22;45006;56.958;24.166;2023-06-14T15:16:54;23.30;42.40
54485;DHT22;45006;56.958;24.166;2023-06-14T15:19:22;23.40;43.80
54485;DHT22;45006;56.958;24.166;2023-06-14T15:21:48;23.40;42.40
54485;DHT22;45006;56.958;24.166;2023-06-14T15:24:16;23.40;41.40
54485;DHT22;45006;56.958;24.166;2023-06-14T15:27:01;23.40;41.40
54485;DHT22;45006;56.958;24.166;2023-06-14T15:29:28;23.50;41.50
54485;DHT22;45006;56.958;24.166;2023-06-14T15:31:55;23.40;40.60
54485;DHT22;45006;56.958;24.166;2023-06-14T15:34:24;23.40;40.50
54485;DHT22;45006;56.958;24.166;2023-06-14T15:36:51;23.40;40.50
54485;DHT22;45006;56.958;24.166;2023-06-14T15:39:18;23.40;40.20
54485;DHT22;45006;56.958;24.166;2023-06-14T15:41:45;23.30;40.30
54485;DHT22;45006;56.958;24.166;2023-06-14T15:44:12;23.40;40.50